Flight Track Log - Related Links

Times and Time Zones

All times are in EDT time to prevent confusion due to time zone crossing. See the UAL3821 flight status page for this flight to view local times or setup timezone preferences in your user account.


Time Position Orientation Groundspeed Altitude Reporting Facility
EDT Latitude Longitude Course Direction KTS MPH feet Rate Location/Type
Tue 07:51:07 AM 40.6333 -74.1833 229° Southwest 200 230 2,900  Level New York TRACON
Tue 07:53:00 AM 40.3805 -74.5977 222° Southwest  Level Estimated
Tue 07:53:36 AM 40.5936 -74.3950 256° West 255 293 8,900  Level New York Center
Tue 07:54:00 AM 40.3023 -74.7043 226° Southwest  Level Estimated
Tue 07:54:36 AM 40.5881 -74.5067 266° West 272 313 10,800  Level New York Center
Tue 07:55:00 AM 40.2239 -74.8107 226° Southwest  Level Estimated
Tue 07:55:36 AM 40.5550 -74.6197 249° West 316 364 11,900  Level New York Center
Tue 07:56:00 AM 40.1455 -74.9169 229° Southwest  Level Estimated
Tue 07:56:36 AM 40.5142 -74.7239 243° Southwest 347 399 13,400  Level New York Center
Tue 07:57:36 AM 40.4661 -74.8494 243° Southwest 362 417 15,100 1,450 Climbing New York Center
Tue 07:58:36 AM 40.4203 -74.9664 243° Southwest 362 417 16,300 1,250 Climbing New York Center
Tue 07:59:36 AM 40.3519 -75.0714 230° Southwest 376 433 17,600 1,100 Climbing New York Center
Tue 08:00:36 AM 40.2772 -75.1728 226° Southwest 388 447 18,500 950 Climbing New York Center
Tue 08:01:36 AM 40.2044 -75.2822 229° Southwest 398 458 19,500 1,000 Climbing New York Center
Tue 08:02:36 AM 40.1275 -75.3858 226° Southwest 404 465 20,500 1,000 Climbing New York Center
Tue 08:03:36 AM 40.0503 -75.4947 227° Southwest 404 465 21,500 1,048 Climbing New York Center
Tue 08:05:22 AM 39.9114 -75.6861 227° Southwest 420 483 23,400 1,207 Climbing Washington Center
Tue 08:06:20 AM 39.8383 -75.8022 231° Southwest 426 490 24,800 1,261 Climbing Washington Center
Tue 08:07:21 AM 39.7653 -75.9181 231° Southwest 415 478 25,900 1,131 Climbing Washington Center
Tue 08:08:22 AM 39.6961 -76.0339 232° Southwest 420 483 27,100 1,190 Climbing Washington Center
Tue 08:09:22 AM 39.6186 -76.1492 229° Southwest 420 483 28,300 1,271 Climbing Washington Center
Tue 08:10:20 AM 39.5472 -76.2644 231° Southwest 425 489 29,600 1,361 Climbing Washington Center
Tue 08:11:21 AM 39.4714 -76.3792 229° Southwest 425 489 31,000 1,131 Climbing Washington Center
Tue 08:12:22 AM 39.3956 -76.4911 229° Southwest 425 489 31,900 496 Climbing Washington Center
Tue 08:13:22 AM 39.3156 -76.6189 231° Southwest 440 506 32,000 51 Climbing Washington Center
Tue 08:14:20 AM 39.2331 -76.7492 231° Southwest 465 535 32,000  Level Washington Center
Tue 08:15:20 AM 39.1483 -76.8789 230° Southwest 478 550 32,000  Level Washington Center
Tue 08:16:21 AM 39.0614 -77.0111 230° Southwest 478 550 32,000  Level Washington Center
Tue 08:17:22 AM 38.9642 -77.1267 223° Southwest 478 550 32,000  Level Washington Center
Tue 08:18:20 AM 38.8731 -77.2261 220° Southwest 478 550 32,000  Level Washington Center
Tue 08:19:20 AM 38.7736 -77.3331 220° Southwest 478 550 32,000  Level Washington Center
Tue 08:20:21 AM 38.6739 -77.4425 221° Southwest 478 550 32,000  Level Washington Center
Tue 08:21:22 AM 38.5658 -77.5619 221° Southwest 478 550 32,000  Level Washington Center
Tue 08:22:20 AM 38.4703 -77.6656 220° Southwest 487 560 32,000  Level Washington Center
Tue 08:23:20 AM 38.3703 -77.7739 220° Southwest 487 560 32,000  Level Washington Center
Tue 08:24:21 AM 38.2683 -77.8819 220° Southwest 482 555 32,000  Level Washington Center
Tue 08:25:22 AM 38.1658 -77.9925 220° Southwest 482 555 32,000 -202 Level Washington Center
Tue 08:26:20 AM 38.0636 -78.1000 220° Southwest 488 562 31,600 -900 Descending Washington Center
Tue 08:27:22 AM 37.9628 -78.2283 225° Southwest 481 554 30,200 -1,279 Descending Washington Center
Tue 08:28:22 AM 37.8744 -78.3542 228° Southwest 481 554 29,000 -1,119 Descending Washington Center
Tue 08:29:20 AM 37.7861 -78.4822 229° Southwest 481 554 28,000 -1,008 Descending Washington Center
Tue 08:30:21 AM 37.7039 -78.5972 228° Southwest 492 566 27,000 -492 Descending Washington Center
Tue 08:31:22 AM 37.6086 -78.7350 229° Southwest 486 559 27,000 -403 Level Washington Center
Tue 08:32:20 AM 37.5197 -78.8650 229° Southwest 486 559 26,200 -1,780 Descending Washington Center
Tue 08:33:20 AM 37.4372 -78.9789 228° Southwest 467 537 23,500 -2,033 Descending Washington Center
Tue 08:34:21 AM 37.3611 -79.0881 229° Southwest 426 490 22,100 -738 Descending Washington Center
Tue 08:35:22 AM 37.2828 -79.1942 227° Southwest 426 490 22,000 -50 Descending Washington Center
Tue 08:36:22 AM 37.2172 -79.2900 229° Southwest 426 490 22,000  Level Washington Center
Tue 08:37:22 AM 37.1361 -79.4139 231° Southwest 419 482 22,000 -254 Level Washington Center
Tue 08:38:20 AM 37.0619 -79.5194 229° Southwest 438 504 21,500 -1,513 Descending Washington Center
Tue 08:39:21 AM 36.9761 -79.6528 231° Southwest 444 511 19,000 -1,918 Descending Washington Center
Tue 08:40:22 AM 36.9036 -79.7583 229° Southwest 432 497 17,600 -1,377 Descending Washington Center
Tue 08:42:00 AM 36.7788 -79.9277 227° Southwest  Level FlightAware Approximate
Tue 08:49:00 AM 36.1013 -79.9411 39° Northeast  Level Estimated
Tue 08:50:00 AM 36.1000 -79.9333 15° North  Level FlightAware Approximate
Tue 08:51:00 AM 36.1013 -79.9411 15° North  Level Estimated
Tue 08:52:00 AM 36.1000 -79.9333 15° North  Level FlightAware Approximate

Login

Don't have an account? Register now (free) for customized features, flight alerts, and more!